createdAt,value
2022-10-06T00:00:54.685Z,3.40
2022-10-06T00:03:23.471Z,2.83
2022-10-06T00:05:51.623Z,3.20
2022-10-06T00:08:19.382Z,2.80
2022-10-06T00:10:46.282Z,3.13
2022-10-06T00:13:13.133Z,3.30
2022-10-06T00:15:40.070Z,3.05
2022-10-06T00:18:06.861Z,2.78
2022-10-06T00:20:33.794Z,2.95
2022-10-06T00:23:00.595Z,2.70
2022-10-06T00:25:27.443Z,2.65
2022-10-06T00:27:55.152Z,2.83
2022-10-06T00:30:25.226Z,2.50
2022-10-06T00:32:57.466Z,2.90
2022-10-06T00:35:31.429Z,2.90
2022-10-06T00:37:58.463Z,2.72
2022-10-06T00:40:25.602Z,2.67
2022-10-06T00:42:52.456Z,2.60
2022-10-06T00:45:29.536Z,2.50
2022-10-06T00:48:00.646Z,2.70
2022-10-06T00:50:28.073Z,2.33
2022-10-06T00:52:55.646Z,2.53
2022-10-06T00:55:22.826Z,2.38
2022-10-06T00:57:51.987Z,2.28
2022-10-06T01:00:19.808Z,2.30
2022-10-06T01:02:55.440Z,2.10
2022-10-06T01:05:32.318Z,2.63
2022-10-06T01:07:59.441Z,2.40
2022-10-06T01:10:27.066Z,2.20
2022-10-06T01:12:54.403Z,2.47
2022-10-06T01:15:22.847Z,2.40
2022-10-06T01:18:04.729Z,2.03
2022-10-06T01:20:32.220Z,2.00
2022-10-06T01:23:05.740Z,2.42
2022-10-06T01:25:34.678Z,2.57
2022-10-06T01:28:04.609Z,2.40
2022-10-06T01:30:46.397Z,2.63
2022-10-06T01:33:14.536Z,2.05
2022-10-06T01:35:41.498Z,2.25
2022-10-06T01:38:08.447Z,2.37
2022-10-06T01:40:35.497Z,2.40
2022-10-06T01:43:02.603Z,2.45
2022-10-06T01:45:29.919Z,2.30
2022-10-06T01:47:57.721Z,2.50
2022-10-06T01:50:24.801Z,2.50
2022-10-06T01:52:52.575Z,2.33
2022-10-06T01:55:19.353Z,2.70
2022-10-06T01:57:46.231Z,2.35
2022-10-06T02:00:13.720Z,2.38
2022-10-06T02:02:42.500Z,2.57
2022-10-06T02:05:10.252Z,2.45
2022-10-06T02:07:40.502Z,2.50
2022-10-06T02:10:08.315Z,2.65
2022-10-06T02:12:35.957Z,2.40
2022-10-06T02:15:03.332Z,2.80
2022-10-06T02:17:30.112Z,2.30
2022-10-06T02:19:56.963Z,2.20
2022-10-06T02:22:23.895Z,2.50
2022-10-06T02:24:50.843Z,2.40
2022-10-06T02:27:18.396Z,2.33
2022-10-06T02:29:45.220Z,2.20
2022-10-06T02:32:13.713Z,2.40
2022-10-06T02:34:40.735Z,2.60
2022-10-06T02:37:08.302Z,2.53
2022-10-06T02:39:35.591Z,2.37
2022-10-06T02:42:05.515Z,2.30
2022-10-06T02:44:32.526Z,2.40
2022-10-06T02:46:59.518Z,2.42
2022-10-06T02:49:26.786Z,2.38
2022-10-06T02:51:53.705Z,2.20
2022-10-06T02:54:20.785Z,2.17
2022-10-06T02:56:47.545Z,2.58
2022-10-06T02:59:14.325Z,2.10
2022-10-06T03:01:42.898Z,1.98
2022-10-06T03:04:14.617Z,2.40
2022-10-06T03:06:42.229Z,2.20
2022-10-06T03:09:21.379Z,2.50
2022-10-06T03:11:48.759Z,2.58
2022-10-06T03:14:22.275Z,2.60
2022-10-06T03:16:50.985Z,2.50
2022-10-06T03:19:25.399Z,2.67
2022-10-06T03:21:53.026Z,2.30
2022-10-06T03:24:22.748Z,2.53
2022-10-06T03:26:54.527Z,2.53
2022-10-06T03:29:21.550Z,2.20
2022-10-06T03:31:53.361Z,2.22
2022-10-06T03:34:20.319Z,2.33
2022-10-06T03:36:47.117Z,2.63
2022-10-06T03:39:17.139Z,2.40
2022-10-06T03:41:43.970Z,2.33
2022-10-06T03:44:11.620Z,2.45
2022-10-06T03:46:41.585Z,2.75
2022-10-06T03:49:08.918Z,2.60
2022-10-06T03:51:38.805Z,2.60
2022-10-06T03:54:08.502Z,2.43
2022-10-06T03:56:38.145Z,2.20
2022-10-06T03:59:11.158Z,2.70
2022-10-06T04:01:44.552Z,2.42
2022-10-06T04:04:14.326Z,2.53
2022-10-06T04:06:44.120Z,2.60
2022-10-06T04:09:15.876Z,2.50
2022-10-06T04:11:45.320Z,2.75
2022-10-06T04:14:15.697Z,2.35
2022-10-06T04:16:45.934Z,2.67
2022-10-06T04:19:16.290Z,2.70
2022-10-06T04:21:47.595Z,3.20
2022-10-06T04:24:18.284Z,3.00
2022-10-06T04:26:48.304Z,3.05
2022-10-06T04:29:15.902Z,2.97
2022-10-06T04:31:44.782Z,3.30
2022-10-06T04:34:22.522Z,3.20
2022-10-06T04:36:50.006Z,3.38
2022-10-06T04:39:18.534Z,3.40
2022-10-06T04:41:46.937Z,3.60
2022-10-06T04:44:17.817Z,3.83
2022-10-06T04:46:45.527Z,3.30
2022-10-06T04:49:18.933Z,3.47
2022-10-06T04:51:50.110Z,3.70
2022-10-06T04:54:18.405Z,3.13
2022-10-06T04:56:45.998Z,3.20
2022-10-06T04:59:12.938Z,3.25
2022-10-06T05:01:42.909Z,3.08
2022-10-06T05:04:12.177Z,3.45
2022-10-06T05:06:42.087Z,3.30
2022-10-06T05:09:14.966Z,3.43
2022-10-06T05:11:49.122Z,3.40
2022-10-06T05:14:18.848Z,3.60
2022-10-06T05:16:48.922Z,3.20
2022-10-06T05:19:16.339Z,3.22
2022-10-06T05:21:43.300Z,3.43
2022-10-06T05:24:13.929Z,3.53
2022-10-06T05:26:40.729Z,3.03
2022-10-06T05:29:11.201Z,2.97
2022-10-06T05:31:39.322Z,3.42
2022-10-06T05:34:07.430Z,3.00
2022-10-06T05:36:35.994Z,2.80
2022-10-06T05:39:04.203Z,3.22
2022-10-06T05:41:43.305Z,3.35
2022-10-06T05:44:12.091Z,3.20
2022-10-06T05:46:40.415Z,3.60
2022-10-06T05:49:08.793Z,3.55
2022-10-06T05:51:37.123Z,3.45
2022-10-06T05:54:08.581Z,3.67
2022-10-06T05:56:38.692Z,3.58
2022-10-06T05:59:06.613Z,3.77
2022-10-06T06:01:38.657Z,3.97
2022-10-06T06:04:12.621Z,3.72
2022-10-06T06:06:45.483Z,4.20
2022-10-06T06:09:18.505Z,4.40
2022-10-06T06:11:49.803Z,4.67
2022-10-06T06:14:22.034Z,4.63
2022-10-06T06:16:52.344Z,5.22
2022-10-06T06:19:20.675Z,4.28
2022-10-06T06:21:48.046Z,4.65
2022-10-06T06:24:14.868Z,4.40
2022-10-06T06:26:41.948Z,4.53
2022-10-06T06:29:08.820Z,4.50
2022-10-06T06:31:41.954Z,4.57
2022-10-06T06:34:08.801Z,4.60
2022-10-06T06:36:42.688Z,4.43
2022-10-06T06:39:13.894Z,4.63
2022-10-06T06:41:44.122Z,4.60
2022-10-06T06:44:29.581Z,4.15
2022-10-06T06:47:03.096Z,4.15
2022-10-06T06:52:11.929Z,4.35
2022-10-06T06:54:40.757Z,4.50
2022-10-06T06:57:13.719Z,4.07
2022-10-06T06:59:40.773Z,3.75
2022-10-06T07:02:10.412Z,4.03
2022-10-06T07:04:39.579Z,4.18
2022-10-06T07:07:11.958Z,4.00
2022-10-06T07:09:38.768Z,4.00
2022-10-06T07:12:09.687Z,4.18
2022-10-06T07:14:36.480Z,4.13
2022-10-06T07:17:04.643Z,4.07
2022-10-06T07:19:31.873Z,3.92
2022-10-06T07:22:07.402Z,3.90
2022-10-06T07:24:34.195Z,3.95
2022-10-06T07:27:00.973Z,4.17
2022-10-06T07:29:28.110Z,3.85
2022-10-06T07:31:55.002Z,4.07
2022-10-06T07:34:21.853Z,3.95
2022-10-06T07:36:48.744Z,3.75
2022-10-06T07:39:16.142Z,4.20
2022-10-06T07:41:42.964Z,3.13
2022-10-06T07:44:09.753Z,3.70
2022-10-06T07:46:38.384Z,0.70
2022-10-06T07:49:10.495Z,0.35
2022-10-06T07:51:37.314Z,0.30
2022-10-06T07:54:04.368Z,0.28
2022-10-06T07:56:49.609Z,0.30
2022-10-06T07:59:19.684Z,0.35
2022-10-06T08:01:46.504Z,0.10
2022-10-06T08:04:13.990Z,0.10
2022-10-06T08:06:40.971Z,0.10
2022-10-06T08:09:08.508Z,0.10
2022-10-06T08:11:35.283Z,0.10
2022-10-06T08:14:02.042Z,0.10
2022-10-06T08:16:28.835Z,0.07
2022-10-06T08:18:57.992Z,0.10
2022-10-06T08:21:30.222Z,0.13
2022-10-06T08:23:58.675Z,0.15
2022-10-06T08:26:27.595Z,0.25
2022-10-06T08:28:56.124Z,0.20
2022-10-06T08:31:23.809Z,0.15
2022-10-06T08:33:54.824Z,0.10
2022-10-06T08:36:21.774Z,0.15
2022-10-06T08:38:48.537Z,0.20
2022-10-06T08:41:30.394Z,0.20
2022-10-06T08:44:05.594Z,0.10
2022-10-06T08:46:40.494Z,0.20
2022-10-06T08:49:15.749Z,0.20
2022-10-06T08:52:09.862Z,0.20
2022-10-06T08:54:48.777Z,0.10
2022-10-06T08:57:25.418Z,0.20
2022-10-06T08:59:52.807Z,0.20
2022-10-06T09:02:38.012Z,0.20
2022-10-06T09:05:07.396Z,0.10
2022-10-06T09:07:49.561Z,0.30
2022-10-06T09:10:31.343Z,0.20
2022-10-06T09:13:05.670Z,0.15
2022-10-06T09:15:56.606Z,0.20
2022-10-06T09:18:49.819Z,0.55
2022-10-06T09:21:29.473Z,0.20
2022-10-06T09:24:01.234Z,0.20
2022-10-06T09:26:30.772Z,0.20
2022-10-06T09:28:58.266Z,0.20
2022-10-06T09:31:30.384Z,0.20
2022-10-06T09:34:04.606Z,0.30
2022-10-06T09:36:32.227Z,0.17
2022-10-06T09:39:00.330Z,0.20
2022-10-06T09:41:45.176Z,0.20
2022-10-06T09:44:23.289Z,0.22
2022-10-06T09:46:50.447Z,0.20
2022-10-06T09:49:20.246Z,0.30
2022-10-06T09:52:15.134Z,0.30
2022-10-06T09:54:43.609Z,0.20
2022-10-06T09:57:26.730Z,0.40
2022-10-06T09:59:53.857Z,0.20
2022-10-06T10:02:34.944Z,0.10
2022-10-06T10:05:01.831Z,0.20
2022-10-06T10:07:30.910Z,0.20
2022-10-06T10:10:33.042Z,0.30
2022-10-06T10:13:00.926Z,0.50
2022-10-06T10:15:37.522Z,0.25
2022-10-06T10:18:11.410Z,0.20
2022-10-06T10:20:56.585Z,0.32
2022-10-06T10:23:36.111Z,0.20
2022-10-06T10:26:17.020Z,0.23
2022-10-06T10:29:05.117Z,0.30
2022-10-06T10:31:55.324Z,0.40
2022-10-06T10:34:39.937Z,0.20
2022-10-06T10:37:15.085Z,0.10
2022-10-06T10:39:56.935Z,0.20
2022-10-06T10:42:29.445Z,0.38
2022-10-06T10:45:02.216Z,0.20
2022-10-06T10:47:35.164Z,0.40
2022-10-06T10:50:04.992Z,0.20
2022-10-06T10:52:46.497Z,0.23
2022-10-06T10:55:37.390Z,0.30
2022-10-06T10:58:28.580Z,0.30
2022-10-06T11:01:05.059Z,0.30
2022-10-06T11:03:32.005Z,0.40
2022-10-06T11:06:40.102Z,0.30
2022-10-06T11:09:15.869Z,0.22
2022-10-06T11:11:52.081Z,0.32
2022-10-06T11:14:47.236Z,0.20
2022-10-06T11:17:46.977Z,0.45
2022-10-06T11:20:20.334Z,0.20
2022-10-06T11:23:21.165Z,0.20
2022-10-06T11:26:07.394Z,0.30
2022-10-06T11:28:53.114Z,0.32
2022-10-06T11:31:41.115Z,0.50
2022-10-06T11:34:10.455Z,0.27
2022-10-06T11:36:54.731Z,0.40
2022-10-06T11:39:45.549Z,0.30
2022-10-06T11:45:15.445Z,0.43
2022-10-06T11:48:14.291Z,0.27
2022-10-06T11:50:42.218Z,0.40
2022-10-06T11:53:39.158Z,0.50
2022-10-06T11:56:17.965Z,0.45
2022-10-06T11:58:51.589Z,0.30
2022-10-06T12:01:30.638Z,0.30
2022-10-06T12:04:09.375Z,0.75
2022-10-06T12:06:42.120Z,0.30
2022-10-06T12:09:24.323Z,0.40
2022-10-06T12:11:53.583Z,0.30
2022-10-06T12:16:32.409Z,0.40
2022-10-06T12:17:31.784Z,0.32
2022-10-06T12:20:01.230Z,0.25
2022-10-06T12:22:37.211Z,0.40
2022-10-06T12:25:29.521Z,0.38
2022-10-06T12:28:21.154Z,0.40
2022-10-06T12:31:10.929Z,0.45
2022-10-06T12:33:41.984Z,0.60
2022-10-06T12:36:22.057Z,0.60
2022-10-06T12:39:03.392Z,0.50
2022-10-06T12:42:01.847Z,0.30
2022-10-06T12:44:43.314Z,0.40
2022-10-06T12:47:26.926Z,0.40
2022-10-06T12:50:01.554Z,0.40
2022-10-06T12:52:49.539Z,0.50
2022-10-06T12:55:46.718Z,0.60
2022-10-06T12:58:26.200Z,0.50
2022-10-06T13:00:53.559Z,0.70
2022-10-06T13:03:24.968Z,0.80
2022-10-06T13:06:00.459Z,0.60
2022-10-06T13:08:32.849Z,0.50
2022-10-06T13:11:27.333Z,0.50
2022-10-06T13:13:56.847Z,0.60
2022-10-06T13:16:27.656Z,0.38
2022-10-06T13:18:56.459Z,0.57
2022-10-06T13:21:23.550Z,0.50
2022-10-06T13:23:50.732Z,0.70
2022-10-06T13:26:21.906Z,0.75
2022-10-06T13:28:51.465Z,0.70
2022-10-06T13:31:20.260Z,0.73
2022-10-06T13:33:51.062Z,0.57
2022-10-06T13:36:18.831Z,0.63
2022-10-06T13:38:45.939Z,0.40
2022-10-06T13:41:30.271Z,0.40
2022-10-06T13:44:12.131Z,0.60
2022-10-06T13:46:43.591Z,0.40
2022-10-06T13:49:45.675Z,0.40
2022-10-06T13:52:30.746Z,0.60
2022-10-06T13:54:59.691Z,0.60
2022-10-06T13:57:37.073Z,0.38
2022-10-06T14:00:22.280Z,0.43
2022-10-06T14:02:54.751Z,0.70
2022-10-06T14:05:26.392Z,0.55
2022-10-06T14:07:56.831Z,0.38
2022-10-06T14:10:29.172Z,0.57
2022-10-06T14:12:56.009Z,0.70
2022-10-06T14:15:26.122Z,1.00
2022-10-06T14:17:59.032Z,0.68
2022-10-06T14:20:46.468Z,0.40
2022-10-06T14:23:54.994Z,0.63
2022-10-06T14:26:34.892Z,0.57
2022-10-06T14:29:01.615Z,0.57
2022-10-06T14:31:29.123Z,0.50
2022-10-06T14:33:56.852Z,0.45
2022-10-06T14:36:28.808Z,0.50
2022-10-06T14:38:57.140Z,0.43
2022-10-06T14:41:28.240Z,0.57
2022-10-06T14:43:59.595Z,0.50
2022-10-06T14:46:26.375Z,0.35
2022-10-06T14:48:53.883Z,0.40
2022-10-06T14:51:21.316Z,0.53
2022-10-06T14:53:56.298Z,0.35
2022-10-06T14:56:25.101Z,0.35
2022-10-06T14:58:53.095Z,0.40
2022-10-06T15:01:23.317Z,0.70
2022-10-06T15:03:54.696Z,0.60
2022-10-06T15:06:21.628Z,0.30
2022-10-06T15:08:57.256Z,0.35
2022-10-06T15:11:27.270Z,0.25
2022-10-06T15:13:58.541Z,0.55
2022-10-06T15:16:26.899Z,0.20
2022-10-06T15:18:53.712Z,0.47
2022-10-06T15:21:20.855Z,0.60
2022-10-06T15:23:47.841Z,0.32
2022-10-06T15:26:15.123Z,0.30
2022-10-06T15:28:41.909Z,0.20
2022-10-06T15:31:08.792Z,0.35
2022-10-06T15:33:35.743Z,0.60
2022-10-06T15:36:18.015Z,0.22
2022-10-06T15:38:44.884Z,0.40
2022-10-06T15:41:11.948Z,0.27
2022-10-06T15:43:39.735Z,0.20
2022-10-06T15:46:06.448Z,0.40
2022-10-06T15:48:33.247Z,0.20
2022-10-06T15:50:59.954Z,0.50
2022-10-06T15:53:26.800Z,0.23
2022-10-06T15:55:53.527Z,0.40
2022-10-06T15:58:20.298Z,0.13
2022-10-06T16:00:48.020Z,0.40
2022-10-06T16:03:14.770Z,0.15
2022-10-06T16:05:41.545Z,0.20
2022-10-06T16:08:08.299Z,0.30
2022-10-06T16:10:34.981Z,0.30
2022-10-06T16:13:01.720Z,0.20
2022-10-06T16:15:28.461Z,0.40
2022-10-06T16:17:55.206Z,0.30
2022-10-06T16:20:21.900Z,0.10
2022-10-06T16:22:48.657Z,0.50
2022-10-06T16:25:15.455Z,0.52
2022-10-06T16:27:42.232Z,0.43
2022-10-06T16:30:09.506Z,0.37
2022-10-06T16:32:36.531Z,0.47
2022-10-06T16:35:03.552Z,0.57
2022-10-06T16:37:30.315Z,0.50
2022-10-06T16:39:57.191Z,0.40
2022-10-06T16:42:24.374Z,0.87
2022-10-06T16:44:51.087Z,0.40
2022-10-06T16:47:17.906Z,0.50
2022-10-06T16:49:44.599Z,0.70
2022-10-06T16:52:11.541Z,0.65
2022-10-06T16:54:38.326Z,0.30
2022-10-06T16:57:05.156Z,0.50
2022-10-06T16:59:31.947Z,0.80
2022-10-06T17:01:58.670Z,1.33
2022-10-06T17:04:26.235Z,1.27
2022-10-06T17:06:55.390Z,1.80
2022-10-06T17:09:24.889Z,1.45
2022-10-06T17:11:54.502Z,1.52
2022-10-06T17:14:21.699Z,1.40
2022-10-06T17:16:50.895Z,1.20
2022-10-06T17:19:19.751Z,1.00
2022-10-06T17:21:48.943Z,1.10
2022-10-06T17:24:18.379Z,1.20
2022-10-06T17:26:47.641Z,0.70
2022-10-06T17:29:17.253Z,1.30
2022-10-06T17:31:45.266Z,1.13
2022-10-06T17:34:20.641Z,1.02
2022-10-06T17:36:49.517Z,0.98
2022-10-06T17:39:18.733Z,1.70
2022-10-06T17:41:46.895Z,1.60
2022-10-06T17:44:16.594Z,1.50
2022-10-06T17:46:44.946Z,1.63
2022-10-06T17:49:13.954Z,1.65
2022-10-06T17:51:43.828Z,1.50
2022-10-06T17:54:13.321Z,1.30
2022-10-06T17:56:40.489Z,1.10
2022-10-06T17:59:11.516Z,1.38
2022-10-06T18:01:38.386Z,1.13
2022-10-06T18:04:07.140Z,1.40
2022-10-06T18:06:35.612Z,1.27
2022-10-06T18:09:04.003Z,1.20
2022-10-06T18:11:31.033Z,1.10
2022-10-06T18:14:00.361Z,1.10
2022-10-06T18:16:30.145Z,1.00
2022-10-06T18:18:59.021Z,0.75
2022-10-06T18:21:25.904Z,1.00
2022-10-06T18:23:53.225Z,1.27
2022-10-06T18:26:21.469Z,1.30
2022-10-06T18:28:49.844Z,1.00
2022-10-06T18:31:18.966Z,0.90
2022-10-06T18:36:36.806Z,0.60
2022-10-06T18:39:04.746Z,0.63
2022-10-06T18:41:31.687Z,0.80
2022-10-06T18:44:00.089Z,0.68
2022-10-06T18:46:27.572Z,0.77
2022-10-06T18:48:57.127Z,0.80
2022-10-06T18:51:25.169Z,0.80
2022-10-06T18:53:52.350Z,0.80
2022-10-06T18:56:19.896Z,0.60
2022-10-06T18:58:47.258Z,0.60
2022-10-06T19:01:15.207Z,0.70
2022-10-06T19:03:42.832Z,1.17
2022-10-06T19:06:10.341Z,1.10
2022-10-06T19:08:37.977Z,1.25
2022-10-06T19:11:07.379Z,1.20
2022-10-06T19:13:34.944Z,1.35
2022-10-06T19:16:02.338Z,1.80
2022-10-06T19:18:37.279Z,1.50
2022-10-06T19:21:09.337Z,1.60
2022-10-06T19:23:38.684Z,2.00
2022-10-06T19:26:07.622Z,1.77
2022-10-06T19:28:35.890Z,1.70
2022-10-06T19:31:12.050Z,1.80
2022-10-06T19:33:40.995Z,1.67
2022-10-06T19:36:09.163Z,1.70
2022-10-06T19:38:38.207Z,1.70
2022-10-06T19:41:06.010Z,1.58
2022-10-06T19:43:33.336Z,1.90
2022-10-06T19:46:00.851Z,2.00
2022-10-06T19:48:28.237Z,2.00
2022-10-06T19:50:55.607Z,2.20
2022-10-06T19:53:22.780Z,2.05
2022-10-06T19:55:49.896Z,1.95
2022-10-06T19:58:16.714Z,1.70
2022-10-06T20:00:43.469Z,1.53
2022-10-06T20:03:10.261Z,1.95
2022-10-06T20:05:37.076Z,1.90
2022-10-06T20:08:04.044Z,1.80
2022-10-06T20:10:30.806Z,1.95
2022-10-06T20:12:57.593Z,2.10
2022-10-06T20:15:24.383Z,2.00
2022-10-06T20:17:51.262Z,2.38
2022-10-06T20:20:17.993Z,2.05
2022-10-06T20:22:46.246Z,2.30
2022-10-06T20:25:13.203Z,2.20
2022-10-06T20:27:39.903Z,2.40
2022-10-06T20:30:07.380Z,3.15
2022-10-06T20:32:34.167Z,2.97
2022-10-06T20:35:00.978Z,2.72
2022-10-06T20:37:27.775Z,2.83
2022-10-06T20:39:54.547Z,2.28
2022-10-06T20:42:21.776Z,2.08
2022-10-06T20:44:48.521Z,2.33
2022-10-06T20:47:15.900Z,2.10
2022-10-06T20:49:42.754Z,1.80
2022-10-06T20:52:10.239Z,1.83
2022-10-06T20:54:37.012Z,1.95
2022-10-06T20:57:05.791Z,1.50
2022-10-06T20:59:33.530Z,2.10
2022-10-06T21:02:00.842Z,1.70
2022-10-06T21:04:27.760Z,1.48
2022-10-06T21:06:54.701Z,1.58
2022-10-06T21:09:22.201Z,1.55
2022-10-06T21:11:49.140Z,1.60
2022-10-06T21:14:16.327Z,1.30
2022-10-06T21:16:45.767Z,1.30
2022-10-06T21:19:15.606Z,2.20
2022-10-06T21:21:44.346Z,1.67
2022-10-06T21:24:11.267Z,1.58
2022-10-06T21:26:39.381Z,1.80
2022-10-06T21:29:07.049Z,1.30
2022-10-06T21:31:33.966Z,1.55
2022-10-06T21:34:01.070Z,1.40
2022-10-06T21:36:29.490Z,1.77
2022-10-06T21:38:57.929Z,1.70
2022-10-06T21:41:38.195Z,1.50
2022-10-06T21:44:14.063Z,1.48
2022-10-06T21:46:45.890Z,1.20
2022-10-06T21:49:15.651Z,1.40
2022-10-06T21:51:45.513Z,1.37
2022-10-06T21:54:12.452Z,1.23
2022-10-06T21:56:40.101Z,1.00
2022-10-06T21:59:08.117Z,1.20
2022-10-06T22:01:38.154Z,0.80
2022-10-06T22:04:06.140Z,0.90
2022-10-06T22:06:35.264Z,1.00
2022-10-06T22:09:04.068Z,1.30
2022-10-06T22:11:34.412Z,1.02
2022-10-06T22:14:03.687Z,0.90
2022-10-06T22:16:33.472Z,1.30
2022-10-06T22:19:02.753Z,0.77
2022-10-06T22:21:32.363Z,0.90
2022-10-06T22:24:05.366Z,0.90
2022-10-06T22:26:34.275Z,1.00
2022-10-06T22:29:01.165Z,0.67
2022-10-06T22:31:28.636Z,1.00
2022-10-06T22:33:57.764Z,1.00
2022-10-06T22:36:26.374Z,1.08
2022-10-06T22:38:53.808Z,1.08
2022-10-06T22:41:21.622Z,1.10
2022-10-06T22:43:48.749Z,0.90
2022-10-06T22:46:15.779Z,1.23
2022-10-06T22:48:42.632Z,1.30
2022-10-06T22:51:09.751Z,1.58
2022-10-06T22:53:36.605Z,1.17
2022-10-06T22:56:04.090Z,1.48
2022-10-06T22:58:32.137Z,1.40
2022-10-06T23:00:59.008Z,1.67
2022-10-06T23:03:26.231Z,1.77
2022-10-06T23:06:00.830Z,1.40
2022-10-06T23:08:34.156Z,1.58
2022-10-06T23:11:17.409Z,1.50
2022-10-06T23:13:45.033Z,1.48
2022-10-06T23:16:14.521Z,1.65
2022-10-06T23:18:43.356Z,1.70
2022-10-06T23:21:16.231Z,1.50
2022-10-06T23:23:43.359Z,1.50
2022-10-06T23:26:13.771Z,1.20
2022-10-06T23:28:42.144Z,1.60
2022-10-06T23:31:10.489Z,1.40
2022-10-06T23:33:37.581Z,1.40
2022-10-06T23:36:07.855Z,1.38
2022-10-06T23:38:36.290Z,1.17
2022-10-06T23:41:04.660Z,1.52
2022-10-06T23:43:31.721Z,1.37
2022-10-06T23:45:59.498Z,1.20
2022-10-06T23:48:26.952Z,1.30
2022-10-06T23:51:11.675Z,1.50
2022-10-06T23:53:39.375Z,1.80
2022-10-06T23:56:07.821Z,1.37
2022-10-06T23:58:35.153Z,1.27
